sensor_id;sensor_type;location;lat;lon;timestamp;temperature;humidity
41469;DHT22;27206;47.032;15.484;2023-02-23T00:01:19;4.00;1.00
41469;DHT22;27206;47.032;15.484;2023-02-23T00:03:49;3.90;1.00
41469;DHT22;27206;47.032;15.484;2023-02-23T00:06:16;3.90;1.00
41469;DHT22;27206;47.032;15.484;2023-02-23T00:08:43;3.90;1.00
41469;DHT22;27206;47.032;15.484;2023-02-23T00:11:10;3.80;1.00
41469;DHT22;27206;47.032;15.484;2023-02-23T00:13:37;3.80;1.00
41469;DHT22;27206;47.032;15.484;2023-02-23T00:16:08;3.90;1.00
41469;DHT22;27206;47.032;15.484;2023-02-23T00:18:36;3.80;1.00
41469;DHT22;27206;47.032;15.484;2023-02-23T00:23:43;3.70;1.00
41469;DHT22;27206;47.032;15.484;2023-02-23T00:26:11;3.70;1.00
41469;DHT22;27206;47.032;15.484;2023-02-23T00:28:39;3.70;1.00
41469;DHT22;27206;47.032;15.484;2023-02-23T00:31:05;3.70;1.00
41469;DHT22;27206;47.032;15.484;2023-02-23T00:33:31;3.60;1.00
41469;DHT22;27206;47.032;15.484;2023-02-23T00:36:07;3.60;1.00
41469;DHT22;27206;47.032;15.484;2023-02-23T00:38:33;3.60;1.00
41469;DHT22;27206;47.032;15.484;2023-02-23T00:41:05;3.60;1.00
41469;DHT22;27206;47.032;15.484;2023-02-23T00:43:38;3.60;1.00
41469;DHT22;27206;47.032;15.484;2023-02-23T00:46:16;3.50;1.00
41469;DHT22;27206;47.032;15.484;2023-02-23T00:48:43;3.50;1.00
41469;DHT22;27206;47.032;15.484;2023-02-23T00:51:10;3.50;1.00
41469;DHT22;27206;47.032;15.484;2023-02-23T00:53:36;3.40;1.00
41469;DHT22;27206;47.032;15.484;2023-02-23T00:56:06;3.30;1.00
41469;DHT22;27206;47.032;15.484;2023-02-23T00:58:33;3.30;1.00
41469;DHT22;27206;47.032;15.484;2023-02-23T01:00:59;3.20;1.00
41469;DHT22;27206;47.032;15.484;2023-02-23T01:03:28;3.20;1.00
41469;DHT22;27206;47.032;15.484;2023-02-23T01:05:59;3.20;1.00
41469;DHT22;27206;47.032;15.484;2023-02-23T01:08:25;3.10;1.00
41469;DHT22;27206;47.032;15.484;2023-02-23T01:10:54;3.20;1.00
41469;DHT22;27206;47.032;15.484;2023-02-23T01:13:21;3.20;1.00
41469;DHT22;27206;47.032;15.484;2023-02-23T01:15:47;3.20;1.00
41469;DHT22;27206;47.032;15.484;2023-02-23T01:18:18;3.10;1.00
41469;DHT22;27206;47.032;15.484;2023-02-23T01:20:44;3.20;1.00
41469;DHT22;27206;47.032;15.484;2023-02-23T01:23:12;3.20;1.00
41469;DHT22;27206;47.032;15.484;2023-02-23T01:25:40;2.90;1.00
41469;DHT22;27206;47.032;15.484;2023-02-23T01:28:10;2.90;1.00
41469;DHT22;27206;47.032;15.484;2023-02-23T01:30:37;3.00;1.00
41469;DHT22;27206;47.032;15.484;2023-02-23T01:33:03;3.00;1.00
41469;DHT22;27206;47.032;15.484;2023-02-23T01:35:30;3.00;1.00
41469;DHT22;27206;47.032;15.484;2023-02-23T01:37:56;2.90;1.00
41469;DHT22;27206;47.032;15.484;2023-02-23T01:40:23;2.90;1.00
41469;DHT22;27206;47.032;15.484;2023-02-23T01:43:09;2.70;1.00
41469;DHT22;27206;47.032;15.484;2023-02-23T01:45:37;2.80;1.00
41469;DHT22;27206;47.032;15.484;2023-02-23T01:48:20;2.80;1.00
41469;DHT22;27206;47.032;15.484;2023-02-23T01:50:59;2.90;1.00
41469;DHT22;27206;47.032;15.484;2023-02-23T01:53:28;2.80;1.00
41469;DHT22;27206;47.032;15.484;2023-02-23T01:56:01;2.70;1.00
41469;DHT22;27206;47.032;15.484;2023-02-23T01:58:29;2.80;1.00
41469;DHT22;27206;47.032;15.484;2023-02-23T02:00:57;2.70;1.00
41469;DHT22;27206;47.032;15.484;2023-02-23T02:03:57;2.70;1.00
41469;DHT22;27206;47.032;15.484;2023-02-23T02:06:24;2.80;1.00
41469;DHT22;27206;47.032;15.484;2023-02-23T02:08:59;2.70;1.00
41469;DHT22;27206;47.032;15.484;2023-02-23T02:11:31;2.60;1.00
41469;DHT22;27206;47.032;15.484;2023-02-23T02:14:16;2.60;1.00
41469;DHT22;27206;47.032;15.484;2023-02-23T02:27:17;2.40;1.00
41469;DHT22;27206;47.032;15.484;2023-02-23T02:35:33;2.40;1.00
41469;DHT22;27206;47.032;15.484;2023-02-23T02:38:20;2.40;1.00
41469;DHT22;27206;47.032;15.484;2023-02-23T02:46:31;2.30;1.00
41469;DHT22;27206;47.032;15.484;2023-02-23T02:49:02;2.30;1.00
41469;DHT22;27206;47.032;15.484;2023-02-23T02:51:42;2.30;1.00
41469;DHT22;27206;47.032;15.484;2023-02-23T02:56:37;2.30;1.00
41469;DHT22;27206;47.032;15.484;2023-02-23T02:59:13;1.90;1.00
41469;DHT22;27206;47.032;15.484;2023-02-23T03:01:58;1.80;1.00
41469;DHT22;27206;47.032;15.484;2023-02-23T03:04:42;1.90;1.00
41469;DHT22;27206;47.032;15.484;2023-02-23T03:07:33;2.00;1.00
41469;DHT22;27206;47.032;15.484;2023-02-23T03:22:11;2.20;1.00
41469;DHT22;27206;47.032;15.484;2023-02-23T03:28:10;2.20;1.00
41469;DHT22;27206;47.032;15.484;2023-02-23T03:31:19;2.10;1.00
41469;DHT22;27206;47.032;15.484;2023-02-23T03:34:15;2.00;1.00
41469;DHT22;27206;47.032;15.484;2023-02-23T03:37:22;2.10;1.00
41469;DHT22;27206;47.032;15.484;2023-02-23T03:42:58;2.10;1.00
41469;DHT22;27206;47.032;15.484;2023-02-23T03:45:45;2.10;1.00
41469;DHT22;27206;47.032;15.484;2023-02-23T03:48:32;2.20;1.00
41469;DHT22;27206;47.032;15.484;2023-02-23T03:51:19;2.20;1.00
41469;DHT22;27206;47.032;15.484;2023-02-23T03:54:13;2.10;1.00
41469;DHT22;27206;47.032;15.484;2023-02-23T03:57:02;2.10;1.00
41469;DHT22;27206;47.032;15.484;2023-02-23T03:59:57;2.10;1.00
41469;DHT22;27206;47.032;15.484;2023-02-23T04:02:47;2.10;1.00
41469;DHT22;27206;47.032;15.484;2023-02-23T04:05:34;2.00;1.00
41469;DHT22;27206;47.032;15.484;2023-02-23T04:08:20;1.90;1.00
41469;DHT22;27206;47.032;15.484;2023-02-23T04:14:07;1.80;1.00
41469;DHT22;27206;47.032;15.484;2023-02-23T04:16:38;1.90;1.00
41469;DHT22;27206;47.032;15.484;2023-02-23T04:19:05;1.70;1.00
41469;DHT22;27206;47.032;15.484;2023-02-23T04:21:30;1.60;1.00
41469;DHT22;27206;47.032;15.484;2023-02-23T04:23:56;1.70;1.00
41469;DHT22;27206;47.032;15.484;2023-02-23T04:26:22;1.90;1.00
41469;DHT22;27206;47.032;15.484;2023-02-23T04:28:47;1.90;1.00
41469;DHT22;27206;47.032;15.484;2023-02-23T04:31:13;1.80;1.00
41469;DHT22;27206;47.032;15.484;2023-02-23T04:33:42;1.90;1.00
41469;DHT22;27206;47.032;15.484;2023-02-23T04:36:08;1.80;1.00
41469;DHT22;27206;47.032;15.484;2023-02-23T04:38:34;1.80;1.00
41469;DHT22;27206;47.032;15.484;2023-02-23T04:40:59;1.80;1.00
41469;DHT22;27206;47.032;15.484;2023-02-23T04:43:25;1.90;1.00
41469;DHT22;27206;47.032;15.484;2023-02-23T04:45:51;2.00;1.00
41469;DHT22;27206;47.032;15.484;2023-02-23T04:48:17;2.00;1.00
41469;DHT22;27206;47.032;15.484;2023-02-23T04:50:42;2.00;1.00
41469;DHT22;27206;47.032;15.484;2023-02-23T04:53:08;2.10;1.00
41469;DHT22;27206;47.032;15.484;2023-02-23T04:55:33;2.00;1.00
41469;DHT22;27206;47.032;15.484;2023-02-23T04:58:00;2.00;1.00
41469;DHT22;27206;47.032;15.484;2023-02-23T05:00:26;2.10;1.00
41469;DHT22;27206;47.032;15.484;2023-02-23T05:02:54;2.00;1.00
41469;DHT22;27206;47.032;15.484;2023-02-23T05:05:19;2.10;1.00
41469;DHT22;27206;47.032;15.484;2023-02-23T05:07:48;2.10;1.00
41469;DHT22;27206;47.032;15.484;2023-02-23T05:10:13;2.00;1.00
41469;DHT22;27206;47.032;15.484;2023-02-23T05:12:39;1.90;1.00
41469;DHT22;27206;47.032;15.484;2023-02-23T05:15:05;2.00;1.00
41469;DHT22;27206;47.032;15.484;2023-02-23T05:17:31;1.80;1.00
41469;DHT22;27206;47.032;15.484;2023-02-23T05:19:57;1.70;1.00
41469;DHT22;27206;47.032;15.484;2023-02-23T05:22:22;1.70;1.00
41469;DHT22;27206;47.032;15.484;2023-02-23T05:24:48;1.80;1.00
41469;DHT22;27206;47.032;15.484;2023-02-23T05:27:14;1.80;1.00
41469;DHT22;27206;47.032;15.484;2023-02-23T05:29:40;1.70;1.00
41469;DHT22;27206;47.032;15.484;2023-02-23T05:32:06;1.70;1.00
41469;DHT22;27206;47.032;15.484;2023-02-23T05:34:32;1.70;1.00
41469;DHT22;27206;47.032;15.484;2023-02-23T05:36:57;1.70;1.00
41469;DHT22;27206;47.032;15.484;2023-02-23T05:39:23;1.70;1.00
41469;DHT22;27206;47.032;15.484;2023-02-23T05:41:48;1.70;1.00
41469;DHT22;27206;47.032;15.484;2023-02-23T05:44:14;1.70;1.00
41469;DHT22;27206;47.032;15.484;2023-02-23T05:46:40;1.70;1.00
41469;DHT22;27206;47.032;15.484;2023-02-23T05:49:05;1.60;1.00
41469;DHT22;27206;47.032;15.484;2023-02-23T05:51:33;1.60;1.00
41469;DHT22;27206;47.032;15.484;2023-02-23T05:53:58;1.40;1.00
41469;DHT22;27206;47.032;15.484;2023-02-23T05:56:24;1.50;1.00
41469;DHT22;27206;47.032;15.484;2023-02-23T05:58:52;1.60;1.00
41469;DHT22;27206;47.032;15.484;2023-02-23T06:01:19;1.50;1.00
41469;DHT22;27206;47.032;15.484;2023-02-23T06:03:45;1.50;1.00
41469;DHT22;27206;47.032;15.484;2023-02-23T06:06:11;1.60;1.00
41469;DHT22;27206;47.032;15.484;2023-02-23T06:08:37;1.70;1.00
41469;DHT22;27206;47.032;15.484;2023-02-23T06:11:03;1.70;1.00
41469;DHT22;27206;47.032;15.484;2023-02-23T06:13:29;1.70;1.00
41469;DHT22;27206;47.032;15.484;2023-02-23T06:15:56;1.80;1.00
41469;DHT22;27206;47.032;15.484;2023-02-23T06:18:24;1.80;1.00
41469;DHT22;27206;47.032;15.484;2023-02-23T06:20:50;1.80;1.00
41469;DHT22;27206;47.032;15.484;2023-02-23T06:23:16;1.80;1.00
41469;DHT22;27206;47.032;15.484;2023-02-23T06:25:42;1.80;1.00
41469;DHT22;27206;47.032;15.484;2023-02-23T06:28:08;1.80;1.00
41469;DHT22;27206;47.032;15.484;2023-02-23T06:30:35;1.90;1.00
41469;DHT22;27206;47.032;15.484;2023-02-23T06:33:01;1.90;1.00
41469;DHT22;27206;47.032;15.484;2023-02-23T06:35:27;2.00;1.00
41469;DHT22;27206;47.032;15.484;2023-02-23T06:37:53;2.10;1.00
41469;DHT22;27206;47.032;15.484;2023-02-23T06:40:19;2.20;1.00
41469;DHT22;27206;47.032;15.484;2023-02-23T06:42:45;2.20;1.00
41469;DHT22;27206;47.032;15.484;2023-02-23T06:45:11;2.20;1.00
41469;DHT22;27206;47.032;15.484;2023-02-23T06:47:38;2.20;1.00
41469;DHT22;27206;47.032;15.484;2023-02-23T06:50:05;2.20;1.00
41469;DHT22;27206;47.032;15.484;2023-02-23T06:52:31;2.20;1.00
41469;DHT22;27206;47.032;15.484;2023-02-23T06:54:57;2.30;1.00
41469;DHT22;27206;47.032;15.484;2023-02-23T06:57:23;2.30;1.00
41469;DHT22;27206;47.032;15.484;2023-02-23T06:59:49;2.40;1.00
41469;DHT22;27206;47.032;15.484;2023-02-23T07:02:14;2.40;1.00
41469;DHT22;27206;47.032;15.484;2023-02-23T07:04:40;2.50;1.00
41469;DHT22;27206;47.032;15.484;2023-02-23T07:07:06;2.60;1.00
41469;DHT22;27206;47.032;15.484;2023-02-23T07:09:34;2.60;1.00
41469;DHT22;27206;47.032;15.484;2023-02-23T07:12:00;2.70;1.00
41469;DHT22;27206;47.032;15.484;2023-02-23T07:14:29;2.70;1.00
41469;DHT22;27206;47.032;15.484;2023-02-23T07:16:55;2.70;1.00
41469;DHT22;27206;47.032;15.484;2023-02-23T07:19:21;2.80;1.00
41469;DHT22;27206;47.032;15.484;2023-02-23T07:21:47;2.90;1.00
41469;DHT22;27206;47.032;15.484;2023-02-23T07:24:13;3.00;1.00
41469;DHT22;27206;47.032;15.484;2023-02-23T07:26:38;3.10;1.00
41469;DHT22;27206;47.032;15.484;2023-02-23T07:29:09;3.40;1.00
41469;DHT22;27206;47.032;15.484;2023-02-23T07:31:36;3.40;1.00
41469;DHT22;27206;47.032;15.484;2023-02-23T07:34:02;3.60;1.00
41469;DHT22;27206;47.032;15.484;2023-02-23T07:36:28;3.60;1.00
41469;DHT22;27206;47.032;15.484;2023-02-23T07:38:53;3.80;1.00
41469;DHT22;27206;47.032;15.484;2023-02-23T07:41:20;3.80;1.00
41469;DHT22;27206;47.032;15.484;2023-02-23T07:43:46;3.90;1.00
41469;DHT22;27206;47.032;15.484;2023-02-23T07:46:12;3.90;1.00
41469;DHT22;27206;47.032;15.484;2023-02-23T07:48:40;3.90;1.00
41469;DHT22;27206;47.032;15.484;2023-02-23T07:51:10;4.00;1.00
41469;DHT22;27206;47.032;15.484;2023-02-23T07:53:37;4.10;1.00
41469;DHT22;27206;47.032;15.484;2023-02-23T07:56:03;4.20;1.00
41469;DHT22;27206;47.032;15.484;2023-02-23T07:58:29;4.20;1.00
41469;DHT22;27206;47.032;15.484;2023-02-23T08:00:56;4.30;1.00
41469;DHT22;27206;47.032;15.484;2023-02-23T08:03:22;4.40;1.00
41469;DHT22;27206;47.032;15.484;2023-02-23T08:05:47;4.50;1.00
41469;DHT22;27206;47.032;15.484;2023-02-23T08:08:13;4.50;1.00
41469;DHT22;27206;47.032;15.484;2023-02-23T08:10:39;4.60;1.00
41469;DHT22;27206;47.032;15.484;2023-02-23T08:13:04;4.70;1.00
41469;DHT22;27206;47.032;15.484;2023-02-23T08:15:30;4.90;1.00
41469;DHT22;27206;47.032;15.484;2023-02-23T08:17:56;5.00;1.00
41469;DHT22;27206;47.032;15.484;2023-02-23T08:20:22;5.00;1.00
41469;DHT22;27206;47.032;15.484;2023-02-23T08:22:55;5.20;1.00
41469;DHT22;27206;47.032;15.484;2023-02-23T08:25:21;5.30;1.00
41469;DHT22;27206;47.032;15.484;2023-02-23T08:27:48;5.40;1.00
41469;DHT22;27206;47.032;15.484;2023-02-23T08:30:17;5.60;1.00
41469;DHT22;27206;47.032;15.484;2023-02-23T08:32:44;5.70;1.00
41469;DHT22;27206;47.032;15.484;2023-02-23T08:35:10;5.90;1.00
41469;DHT22;27206;47.032;15.484;2023-02-23T08:37:35;6.10;1.00
41469;DHT22;27206;47.032;15.484;2023-02-23T08:40:01;6.20;1.00
41469;DHT22;27206;47.032;15.484;2023-02-23T08:42:27;6.40;1.00
41469;DHT22;27206;47.032;15.484;2023-02-23T08:44:53;6.60;1.00
41469;DHT22;27206;47.032;15.484;2023-02-23T08:47:18;6.70;99.90
41469;DHT22;27206;47.032;15.484;2023-02-23T08:49:46;7.00;99.90
41469;DHT22;27206;47.032;15.484;2023-02-23T08:52:12;7.10;99.90
41469;DHT22;27206;47.032;15.484;2023-02-23T08:54:38;7.20;99.90
41469;DHT22;27206;47.032;15.484;2023-02-23T08:57:03;7.30;99.90
41469;DHT22;27206;47.032;15.484;2023-02-23T08:59:29;7.40;99.90
41469;DHT22;27206;47.032;15.484;2023-02-23T09:01:55;7.40;99.90
41469;DHT22;27206;47.032;15.484;2023-02-23T09:04:20;7.50;99.90
41469;DHT22;27206;47.032;15.484;2023-02-23T09:06:46;7.50;99.90
41469;DHT22;27206;47.032;15.484;2023-02-23T09:09:12;7.50;99.90
41469;DHT22;27206;47.032;15.484;2023-02-23T09:11:39;7.50;99.90
41469;DHT22;27206;47.032;15.484;2023-02-23T09:14:07;7.50;99.90
41469;DHT22;27206;47.032;15.484;2023-02-23T09:16:33;7.40;99.90
41469;DHT22;27206;47.032;15.484;2023-02-23T09:19:00;7.30;99.90
41469;DHT22;27206;47.032;15.484;2023-02-23T09:21:27;7.30;99.90
41469;DHT22;27206;47.032;15.484;2023-02-23T09:23:54;7.30;99.90
41469;DHT22;27206;47.032;15.484;2023-02-23T09:26:21;7.30;99.90
41469;DHT22;27206;47.032;15.484;2023-02-23T09:28:47;7.20;99.90
41469;DHT22;27206;47.032;15.484;2023-02-23T09:31:17;7.20;99.90
41469;DHT22;27206;47.032;15.484;2023-02-23T09:33:43;7.30;99.90
41469;DHT22;27206;47.032;15.484;2023-02-23T09:36:18;7.30;99.90
41469;DHT22;27206;47.032;15.484;2023-02-23T09:38:46;7.30;99.90
41469;DHT22;27206;47.032;15.484;2023-02-23T09:44:06;7.40;99.90
41469;DHT22;27206;47.032;15.484;2023-02-23T09:46:50;7.50;99.90
41469;DHT22;27206;47.032;15.484;2023-02-23T09:49:22;7.50;99.90
41469;DHT22;27206;47.032;15.484;2023-02-23T09:51:53;7.50;99.90
41469;DHT22;27206;47.032;15.484;2023-02-23T09:54:23;7.50;99.90
41469;DHT22;27206;47.032;15.484;2023-02-23T09:56:52;7.50;99.90
41469;DHT22;27206;47.032;15.484;2023-02-23T09:59:20;7.60;99.90
41469;DHT22;27206;47.032;15.484;2023-02-23T10:04:22;7.90;99.90
41469;DHT22;27206;47.032;15.484;2023-02-23T10:15:13;8.10;99.90
41469;DHT22;27206;47.032;15.484;2023-02-23T10:20:49;8.20;99.90
41469;DHT22;27206;47.032;15.484;2023-02-23T10:23:35;8.30;99.90
41469;DHT22;27206;47.032;15.484;2023-02-23T10:26:01;8.30;99.90
41469;DHT22;27206;47.032;15.484;2023-02-23T10:28:33;8.30;99.90
41469;DHT22;27206;47.032;15.484;2023-02-23T10:30:59;8.40;99.90
41469;DHT22;27206;47.032;15.484;2023-02-23T10:33:35;8.50;99.90
41469;DHT22;27206;47.032;15.484;2023-02-23T10:36:32;8.60;99.90
41469;DHT22;27206;47.032;15.484;2023-02-23T10:38:59;8.70;99.90
41469;DHT22;27206;47.032;15.484;2023-02-23T10:41:25;8.70;99.90
41469;DHT22;27206;47.032;15.484;2023-02-23T10:43:50;8.80;99.90
41469;DHT22;27206;47.032;15.484;2023-02-23T10:46:21;8.80;99.90
41469;DHT22;27206;47.032;15.484;2023-02-23T10:48:49;8.80;99.90
41469;DHT22;27206;47.032;15.484;2023-02-23T10:51:24;8.80;99.90
41469;DHT22;27206;47.032;15.484;2023-02-23T10:53:52;9.00;99.90
41469;DHT22;27206;47.032;15.484;2023-02-23T10:56:18;9.00;99.90
41469;DHT22;27206;47.032;15.484;2023-02-23T10:58:46;9.20;99.90
41469;DHT22;27206;47.032;15.484;2023-02-23T11:01:14;9.30;99.90
41469;DHT22;27206;47.032;15.484;2023-02-23T11:03:49;9.40;99.90
41469;DHT22;27206;47.032;15.484;2023-02-23T11:08:53;9.40;99.90
41469;DHT22;27206;47.032;15.484;2023-02-23T11:11:23;9.50;99.90
41469;DHT22;27206;47.032;15.484;2023-02-23T11:13:51;9.60;99.90
41469;DHT22;27206;47.032;15.484;2023-02-23T11:16:22;9.80;99.90
41469;DHT22;27206;47.032;15.484;2023-02-23T11:18:54;9.80;99.90
41469;DHT22;27206;47.032;15.484;2023-02-23T11:21:24;9.70;99.90
41469;DHT22;27206;47.032;15.484;2023-02-23T11:23:52;9.70;99.90
41469;DHT22;27206;47.032;15.484;2023-02-23T11:26:29;9.90;99.90
41469;DHT22;27206;47.032;15.484;2023-02-23T11:29:11;10.10;99.90
41469;DHT22;27206;47.032;15.484;2023-02-23T11:31:37;10.40;99.90
41469;DHT22;27206;47.032;15.484;2023-02-23T11:34:05;10.40;99.90
41469;DHT22;27206;47.032;15.484;2023-02-23T11:36:34;10.50;99.90
41469;DHT22;27206;47.032;15.484;2023-02-23T11:41:32;10.70;99.90
41469;DHT22;27206;47.032;15.484;2023-02-23T11:44:00;10.60;99.90
41469;DHT22;27206;47.032;15.484;2023-02-23T11:46:28;10.90;99.90
41469;DHT22;27206;47.032;15.484;2023-02-23T11:48:59;11.00;99.90
41469;DHT22;27206;47.032;15.484;2023-02-23T11:51:34;10.90;99.90
41469;DHT22;27206;47.032;15.484;2023-02-23T11:54:02;10.90;99.90
41469;DHT22;27206;47.032;15.484;2023-02-23T11:56:31;10.90;99.90
41469;DHT22;27206;47.032;15.484;2023-02-23T12:04:06;11.30;99.90
41469;DHT22;27206;47.032;15.484;2023-02-23T12:06:39;11.30;99.90
41469;DHT22;27206;47.032;15.484;2023-02-23T12:09:28;11.30;99.90
41469;DHT22;27206;47.032;15.484;2023-02-23T12:12:05;11.30;99.90
41469;DHT22;27206;47.032;15.484;2023-02-23T12:14:37;11.20;99.90
41469;DHT22;27206;47.032;15.484;2023-02-23T12:17:14;11.20;99.90
41469;DHT22;27206;47.032;15.484;2023-02-23T12:19:46;11.10;99.90
41469;DHT22;27206;47.032;15.484;2023-02-23T12:22:17;11.30;99.90
41469;DHT22;27206;47.032;15.484;2023-02-23T12:24:57;11.30;99.90
41469;DHT22;27206;47.032;15.484;2023-02-23T12:27:36;11.30;99.90
41469;DHT22;27206;47.032;15.484;2023-02-23T12:30:26;11.50;99.90
41469;DHT22;27206;47.032;15.484;2023-02-23T12:33:07;11.30;99.90
41469;DHT22;27206;47.032;15.484;2023-02-23T12:35:59;11.30;99.90
41469;DHT22;27206;47.032;15.484;2023-02-23T12:41:42;11.20;99.90
41469;DHT22;27206;47.032;15.484;2023-02-23T12:46:46;11.20;99.90
41469;DHT22;27206;47.032;15.484;2023-02-23T12:49:24;11.20;99.90
41469;DHT22;27206;47.032;15.484;2023-02-23T12:54:26;11.10;99.90
41469;DHT22;27206;47.032;15.484;2023-02-23T13:01:55;11.00;99.90
41469;DHT22;27206;47.032;15.484;2023-02-23T13:04:31;11.00;99.90
41469;DHT22;27206;47.032;15.484;2023-02-23T13:12:50;10.90;99.90
41469;DHT22;27206;47.032;15.484;2023-02-23T13:15:38;10.90;99.90
41469;DHT22;27206;47.032;15.484;2023-02-23T13:21:28;11.00;99.90
41469;DHT22;27206;47.032;15.484;2023-02-23T13:24:01;11.10;99.90
41469;DHT22;27206;47.032;15.484;2023-02-23T13:29:29;10.90;99.90
41469;DHT22;27206;47.032;15.484;2023-02-23T13:31:59;10.80;99.90
41469;DHT22;27206;47.032;15.484;2023-02-23T13:34:27;10.80;99.90
41469;DHT22;27206;47.032;15.484;2023-02-23T13:36:55;10.80;99.90
41469;DHT22;27206;47.032;15.484;2023-02-23T13:42:22;10.70;99.90
41469;DHT22;27206;47.032;15.484;2023-02-23T13:45:59;10.70;99.90
41469;DHT22;27206;47.032;15.484;2023-02-23T13:48:18;10.70;99.90
41469;DHT22;27206;47.032;15.484;2023-02-23T13:51:11;10.80;99.90
41469;DHT22;27206;47.032;15.484;2023-02-23T13:53:44;10.80;99.90
41469;DHT22;27206;47.032;15.484;2023-02-23T13:56:16;10.90;99.90
41469;DHT22;27206;47.032;15.484;2023-02-23T13:58:50;10.90;99.90
41469;DHT22;27206;47.032;15.484;2023-02-23T14:01:20;10.80;99.90
41469;DHT22;27206;47.032;15.484;2023-02-23T14:03:52;10.80;99.90
41469;DHT22;27206;47.032;15.484;2023-02-23T14:06:21;10.80;99.90
41469;DHT22;27206;47.032;15.484;2023-02-23T14:08:56;10.90;99.90
41469;DHT22;27206;47.032;15.484;2023-02-23T14:14:03;10.90;99.90
41469;DHT22;27206;47.032;15.484;2023-02-23T14:16:29;10.80;99.90
41469;DHT22;27206;47.032;15.484;2023-02-23T14:19:29;10.80;99.90
41469;DHT22;27206;47.032;15.484;2023-02-23T14:21:59;10.70;99.90
41469;DHT22;27206;47.032;15.484;2023-02-23T14:24:27;10.70;99.90
41469;DHT22;27206;47.032;15.484;2023-02-23T14:27:19;10.70;99.90
41469;DHT22;27206;47.032;15.484;2023-02-23T14:30:07;10.70;99.90
41469;DHT22;27206;47.032;15.484;2023-02-23T14:32:39;10.70;99.90
41469;DHT22;27206;47.032;15.484;2023-02-23T14:35:07;10.80;99.90
41469;DHT22;27206;47.032;15.484;2023-02-23T14:37:58;10.70;99.90
41469;DHT22;27206;47.032;15.484;2023-02-23T14:40:30;10.70;99.90
41469;DHT22;27206;47.032;15.484;2023-02-23T14:42:57;10.60;99.90
41469;DHT22;27206;47.032;15.484;2023-02-23T14:45:35;10.50;99.90
41469;DHT22;27206;47.032;15.484;2023-02-23T14:48:05;10.60;99.90
41469;DHT22;27206;47.032;15.484;2023-02-23T14:50:34;10.50;99.90
41469;DHT22;27206;47.032;15.484;2023-02-23T14:53:02;10.50;99.90
41469;DHT22;27206;47.032;15.484;2023-02-23T14:55:32;10.50;99.90
41469;DHT22;27206;47.032;15.484;2023-02-23T14:58:17;10.50;99.90
41469;DHT22;27206;47.032;15.484;2023-02-23T15:00:45;10.40;99.90
41469;DHT22;27206;47.032;15.484;2023-02-23T15:03:13;10.40;99.90
41469;DHT22;27206;47.032;15.484;2023-02-23T15:05:56;10.40;99.90
41469;DHT22;27206;47.032;15.484;2023-02-23T15:08:26;10.40;99.90
41469;DHT22;27206;47.032;15.484;2023-02-23T15:13:29;10.50;99.90
41469;DHT22;27206;47.032;15.484;2023-02-23T15:15:56;10.50;99.90
41469;DHT22;27206;47.032;15.484;2023-02-23T15:18:31;10.50;99.90
41469;DHT22;27206;47.032;15.484;2023-02-23T15:21:10;10.50;99.90
41469;DHT22;27206;47.032;15.484;2023-02-23T15:23:37;10.40;99.90
41469;DHT22;27206;47.032;15.484;2023-02-23T15:26:28;10.40;99.90
41469;DHT22;27206;47.032;15.484;2023-02-23T15:29:24;10.30;99.90
41469;DHT22;27206;47.032;15.484;2023-02-23T15:31:52;10.30;99.90
41469;DHT22;27206;47.032;15.484;2023-02-23T15:34:24;10.30;99.90
41469;DHT22;27206;47.032;15.484;2023-02-23T15:39:57;10.30;99.90
41469;DHT22;27206;47.032;15.484;2023-02-23T15:42:27;10.30;99.90
41469;DHT22;27206;47.032;15.484;2023-02-23T15:45:02;10.20;99.90
41469;DHT22;27206;47.032;15.484;2023-02-23T15:47:34;10.20;99.90
41469;DHT22;27206;47.032;15.484;2023-02-23T15:52:30;10.20;99.90
41469;DHT22;27206;47.032;15.484;2023-02-23T15:55:07;10.30;99.90
41469;DHT22;27206;47.032;15.484;2023-02-23T15:57:56;10.20;99.90
41469;DHT22;27206;47.032;15.484;2023-02-23T16:00:35;10.20;99.90
41469;DHT22;27206;47.032;15.484;2023-02-23T16:03:03;10.30;99.90
41469;DHT22;27206;47.032;15.484;2023-02-23T16:05:32;10.30;99.90
41469;DHT22;27206;47.032;15.484;2023-02-23T16:08:04;10.20;99.90
41469;DHT22;27206;47.032;15.484;2023-02-23T16:10:40;10.40;99.90
41469;DHT22;27206;47.032;15.484;2023-02-23T16:13:10;10.30;99.90
41469;DHT22;27206;47.032;15.484;2023-02-23T16:15:37;10.20;99.90
41469;DHT22;27206;47.032;15.484;2023-02-23T16:18:08;10.10;99.90
41469;DHT22;27206;47.032;15.484;2023-02-23T16:20:38;10.10;99.90
41469;DHT22;27206;47.032;15.484;2023-02-23T16:23:12;10.10;99.90
41469;DHT22;27206;47.032;15.484;2023-02-23T16:25:41;10.30;99.90
41469;DHT22;27206;47.032;15.484;2023-02-23T16:28:12;10.10;99.90
41469;DHT22;27206;47.032;15.484;2023-02-23T16:30:41;10.10;99.90
41469;DHT22;27206;47.032;15.484;2023-02-23T16:35:44;9.90;99.90
41469;DHT22;27206;47.032;15.484;2023-02-23T16:38:13;9.80;99.90
41469;DHT22;27206;47.032;15.484;2023-02-23T16:40:40;9.70;99.90
41469;DHT22;27206;47.032;15.484;2023-02-23T16:43:06;9.70;99.90
41469;DHT22;27206;47.032;15.484;2023-02-23T16:45:40;9.60;99.90
41469;DHT22;27206;47.032;15.484;2023-02-23T16:48:12;9.50;99.90
41469;DHT22;27206;47.032;15.484;2023-02-23T16:50:38;9.40;99.90
41469;DHT22;27206;47.032;15.484;2023-02-23T16:53:06;9.40;99.90
41469;DHT22;27206;47.032;15.484;2023-02-23T16:55:48;9.20;99.90
41469;DHT22;27206;47.032;15.484;2023-02-23T16:58:19;9.10;99.90
41469;DHT22;27206;47.032;15.484;2023-02-23T17:00:47;9.00;99.90
41469;DHT22;27206;47.032;15.484;2023-02-23T17:03:22;8.90;99.90
41469;DHT22;27206;47.032;15.484;2023-02-23T17:05:48;8.80;99.90
41469;DHT22;27206;47.032;15.484;2023-02-23T17:08:14;8.70;99.90
41469;DHT22;27206;47.032;15.484;2023-02-23T17:10:41;8.70;99.90
41469;DHT22;27206;47.032;15.484;2023-02-23T17:13:16;8.70;99.90
41469;DHT22;27206;47.032;15.484;2023-02-23T17:15:43;8.50;99.90
41469;DHT22;27206;47.032;15.484;2023-02-23T17:18:19;8.40;99.90
41469;DHT22;27206;47.032;15.484;2023-02-23T17:20:46;8.30;99.90
41469;DHT22;27206;47.032;15.484;2023-02-23T17:23:12;8.20;99.90
41469;DHT22;27206;47.032;15.484;2023-02-23T17:25:37;8.10;99.90
41469;DHT22;27206;47.032;15.484;2023-02-23T17:28:03;7.90;99.90
41469;DHT22;27206;47.032;15.484;2023-02-23T17:30:29;7.80;99.90
41469;DHT22;27206;47.032;15.484;2023-02-23T17:32:57;7.80;99.90
41469;DHT22;27206;47.032;15.484;2023-02-23T17:35:23;7.80;99.90
41469;DHT22;27206;47.032;15.484;2023-02-23T17:37:50;7.80;99.90
41469;DHT22;27206;47.032;15.484;2023-02-23T17:40:23;7.80;99.90
41469;DHT22;27206;47.032;15.484;2023-02-23T17:43:02;7.70;99.90
41469;DHT22;27206;47.032;15.484;2023-02-23T17:45:29;7.70;99.90
41469;DHT22;27206;47.032;15.484;2023-02-23T17:47:56;7.50;99.90
41469;DHT22;27206;47.032;15.484;2023-02-23T17:50:23;7.50;99.90
41469;DHT22;27206;47.032;15.484;2023-02-23T17:52:50;7.40;99.90
41469;DHT22;27206;47.032;15.484;2023-02-23T17:55:17;7.40;99.90